sensor_id;sensor_type;location;lat;lon;timestamp;temperature;humidity
44767;DHT22;30487;48.716;9.272;2024-01-27T00:00:39;5.60;99.90
44767;DHT22;30487;48.716;9.272;2024-01-27T00:03:05;5.50;99.90
44767;DHT22;30487;48.716;9.272;2024-01-27T00:05:30;5.50;99.90
44767;DHT22;30487;48.716;9.272;2024-01-27T00:07:56;5.50;99.90
44767;DHT22;30487;48.716;9.272;2024-01-27T00:10:22;5.50;99.90
44767;DHT22;30487;48.716;9.272;2024-01-27T00:12:48;5.50;99.90
44767;DHT22;30487;48.716;9.272;2024-01-27T00:15:16;5.50;99.90
44767;DHT22;30487;48.716;9.272;2024-01-27T00:17:42;5.40;99.90
44767;DHT22;30487;48.716;9.272;2024-01-27T00:20:08;5.40;99.90
44767;DHT22;30487;48.716;9.272;2024-01-27T00:22:33;5.50;99.90
44767;DHT22;30487;48.716;9.272;2024-01-27T00:24:59;5.40;99.90
44767;DHT22;30487;48.716;9.272;2024-01-27T00:27:24;5.30;99.90
44767;DHT22;30487;48.716;9.272;2024-01-27T00:29:50;5.30;99.90
44767;DHT22;30487;48.716;9.272;2024-01-27T00:32:16;5.30;99.90
44767;DHT22;30487;48.716;9.272;2024-01-27T00:34:41;5.30;99.90
44767;DHT22;30487;48.716;9.272;2024-01-27T00:37:07;5.30;99.90
44767;DHT22;30487;48.716;9.272;2024-01-27T00:39:32;5.30;99.90
44767;DHT22;30487;48.716;9.272;2024-01-27T00:41:58;5.40;99.90
44767;DHT22;30487;48.716;9.272;2024-01-27T00:44:24;5.40;99.90
44767;DHT22;30487;48.716;9.272;2024-01-27T00:46:50;5.40;99.90
44767;DHT22;30487;48.716;9.272;2024-01-27T00:49:15;5.30;99.90
44767;DHT22;30487;48.716;9.272;2024-01-27T00:51:41;5.30;99.90
44767;DHT22;30487;48.716;9.272;2024-01-27T00:54:07;5.30;99.90
44767;DHT22;30487;48.716;9.272;2024-01-27T00:56:32;5.30;99.90
44767;DHT22;30487;48.716;9.272;2024-01-27T00:58:58;5.20;99.90
44767;DHT22;30487;48.716;9.272;2024-01-27T01:01:23;5.20;99.90
44767;DHT22;30487;48.716;9.272;2024-01-27T01:03:49;5.20;99.90
44767;DHT22;30487;48.716;9.272;2024-01-27T01:06:14;5.10;99.90
44767;DHT22;30487;48.716;9.272;2024-01-27T01:08:40;5.20;99.90
44767;DHT22;30487;48.716;9.272;2024-01-27T01:11:05;5.20;99.90
44767;DHT22;30487;48.716;9.272;2024-01-27T01:13:31;5.20;99.90
44767;DHT22;30487;48.716;9.272;2024-01-27T01:15:57;5.20;99.90
44767;DHT22;30487;48.716;9.272;2024-01-27T01:18:22;5.10;99.90
44767;DHT22;30487;48.716;9.272;2024-01-27T01:20:48;5.00;99.90
44767;DHT22;30487;48.716;9.272;2024-01-27T01:23:13;5.00;99.90
44767;DHT22;30487;48.716;9.272;2024-01-27T01:25:39;5.00;99.90
44767;DHT22;30487;48.716;9.272;2024-01-27T01:28:04;5.00;99.90
44767;DHT22;30487;48.716;9.272;2024-01-27T01:30:30;4.90;99.90
44767;DHT22;30487;48.716;9.272;2024-01-27T01:32:56;4.90;99.90
44767;DHT22;30487;48.716;9.272;2024-01-27T01:35:21;4.90;99.90
44767;DHT22;30487;48.716;9.272;2024-01-27T01:37:47;4.90;99.90
44767;DHT22;30487;48.716;9.272;2024-01-27T01:40:14;4.80;99.90
44767;DHT22;30487;48.716;9.272;2024-01-27T01:42:41;4.70;99.90
44767;DHT22;30487;48.716;9.272;2024-01-27T01:45:08;4.60;99.90
44767;DHT22;30487;48.716;9.272;2024-01-27T01:47:34;4.60;99.90
44767;DHT22;30487;48.716;9.272;2024-01-27T01:50:00;4.60;99.90
44767;DHT22;30487;48.716;9.272;2024-01-27T01:52:26;4.60;99.90
44767;DHT22;30487;48.716;9.272;2024-01-27T01:54:51;4.60;99.90
44767;DHT22;30487;48.716;9.272;2024-01-27T01:57:17;4.60;99.90
44767;DHT22;30487;48.716;9.272;2024-01-27T01:59:43;4.50;99.90
44767;DHT22;30487;48.716;9.272;2024-01-27T02:02:09;4.50;99.90
44767;DHT22;30487;48.716;9.272;2024-01-27T02:04:41;4.50;99.90
44767;DHT22;30487;48.716;9.272;2024-01-27T02:07:07;4.50;99.90
44767;DHT22;30487;48.716;9.272;2024-01-27T02:09:33;4.50;99.90
44767;DHT22;30487;48.716;9.272;2024-01-27T02:11:59;4.40;99.90
44767;DHT22;30487;48.716;9.272;2024-01-27T02:14:25;4.40;99.90
44767;DHT22;30487;48.716;9.272;2024-01-27T02:16:55;4.40;99.90
44767;DHT22;30487;48.716;9.272;2024-01-27T02:19:21;4.30;99.90
44767;DHT22;30487;48.716;9.272;2024-01-27T02:21:47;4.30;99.90
44767;DHT22;30487;48.716;9.272;2024-01-27T02:24:12;4.40;99.90
44767;DHT22;30487;48.716;9.272;2024-01-27T02:26:38;4.40;99.90
44767;DHT22;30487;48.716;9.272;2024-01-27T02:29:04;4.40;99.90
44767;DHT22;30487;48.716;9.272;2024-01-27T02:31:29;4.40;99.90
44767;DHT22;30487;48.716;9.272;2024-01-27T02:33:55;4.40;99.90
44767;DHT22;30487;48.716;9.272;2024-01-27T02:36:20;4.40;99.90
44767;DHT22;30487;48.716;9.272;2024-01-27T02:38:46;4.40;99.90
44767;DHT22;30487;48.716;9.272;2024-01-27T02:41:12;4.40;99.90
44767;DHT22;30487;48.716;9.272;2024-01-27T02:43:38;4.50;99.90
44767;DHT22;30487;48.716;9.272;2024-01-27T02:46:12;4.40;99.90
44767;DHT22;30487;48.716;9.272;2024-01-27T02:48:44;4.40;99.90
44767;DHT22;30487;48.716;9.272;2024-01-27T02:51:10;4.40;99.90
44767;DHT22;30487;48.716;9.272;2024-01-27T02:53:36;4.40;99.90
44767;DHT22;30487;48.716;9.272;2024-01-27T02:56:02;4.40;99.90
44767;DHT22;30487;48.716;9.272;2024-01-27T02:58:27;4.50;99.90
44767;DHT22;30487;48.716;9.272;2024-01-27T03:00:53;4.50;99.90
44767;DHT22;30487;48.716;9.272;2024-01-27T03:03:19;4.50;99.90
44767;DHT22;30487;48.716;9.272;2024-01-27T03:05:44;4.50;99.90
44767;DHT22;30487;48.716;9.272;2024-01-27T03:08:10;4.50;99.90
44767;DHT22;30487;48.716;9.272;2024-01-27T03:10:35;4.40;99.90
44767;DHT22;30487;48.716;9.272;2024-01-27T03:13:01;4.40;99.90
44767;DHT22;30487;48.716;9.272;2024-01-27T03:15:26;4.40;99.90
44767;DHT22;30487;48.716;9.272;2024-01-27T03:17:52;4.40;99.90
44767;DHT22;30487;48.716;9.272;2024-01-27T03:20:18;4.50;99.90
44767;DHT22;30487;48.716;9.272;2024-01-27T03:22:43;4.40;99.90
44767;DHT22;30487;48.716;9.272;2024-01-27T03:25:10;4.40;99.90
44767;DHT22;30487;48.716;9.272;2024-01-27T03:27:39;4.50;99.90
44767;DHT22;30487;48.716;9.272;2024-01-27T03:30:05;4.40;99.90
44767;DHT22;30487;48.716;9.272;2024-01-27T03:32:31;4.40;99.90
44767;DHT22;30487;48.716;9.272;2024-01-27T03:35:00;4.40;99.90
44767;DHT22;30487;48.716;9.272;2024-01-27T03:37:25;4.30;99.90
44767;DHT22;30487;48.716;9.272;2024-01-27T03:39:51;4.30;99.90
44767;DHT22;30487;48.716;9.272;2024-01-27T03:42:16;4.30;99.90
44767;DHT22;30487;48.716;9.272;2024-01-27T03:44:42;4.20;99.90
44767;DHT22;30487;48.716;9.272;2024-01-27T03:47:08;4.20;99.90
44767;DHT22;30487;48.716;9.272;2024-01-27T03:49:33;4.20;99.90
44767;DHT22;30487;48.716;9.272;2024-01-27T03:51:59;4.10;99.90
44767;DHT22;30487;48.716;9.272;2024-01-27T03:54:25;4.00;99.90
44767;DHT22;30487;48.716;9.272;2024-01-27T03:56:50;4.10;99.90
44767;DHT22;30487;48.716;9.272;2024-01-27T03:59:16;4.10;99.90
44767;DHT22;30487;48.716;9.272;2024-01-27T04:01:42;4.10;99.90
44767;DHT22;30487;48.716;9.272;2024-01-27T04:04:08;3.90;99.90
44767;DHT22;30487;48.716;9.272;2024-01-27T04:06:38;3.90;99.90
44767;DHT22;30487;48.716;9.272;2024-01-27T04:09:05;3.80;99.90
44767;DHT22;30487;48.716;9.272;2024-01-27T04:11:31;3.80;99.90
44767;DHT22;30487;48.716;9.272;2024-01-27T04:13:57;3.70;99.90
44767;DHT22;30487;48.716;9.272;2024-01-27T04:16:22;3.70;99.90
44767;DHT22;30487;48.716;9.272;2024-01-27T04:18:48;3.70;99.90
44767;DHT22;30487;48.716;9.272;2024-01-27T04:21:14;3.80;99.90
44767;DHT22;30487;48.716;9.272;2024-01-27T04:23:39;3.80;99.90
44767;DHT22;30487;48.716;9.272;2024-01-27T04:26:05;3.70;99.90
44767;DHT22;30487;48.716;9.272;2024-01-27T04:28:32;3.60;99.90
44767;DHT22;30487;48.716;9.272;2024-01-27T04:30:57;3.60;99.90
44767;DHT22;30487;48.716;9.272;2024-01-27T04:33:23;3.60;99.90
44767;DHT22;30487;48.716;9.272;2024-01-27T04:35:48;3.50;99.90
44767;DHT22;30487;48.716;9.272;2024-01-27T04:38:14;3.50;99.90
44767;DHT22;30487;48.716;9.272;2024-01-27T04:40:40;3.40;99.90
44767;DHT22;30487;48.716;9.272;2024-01-27T04:43:05;3.40;99.90
44767;DHT22;30487;48.716;9.272;2024-01-27T04:45:31;3.40;99.90
44767;DHT22;30487;48.716;9.272;2024-01-27T04:47:56;3.40;99.90
44767;DHT22;30487;48.716;9.272;2024-01-27T04:50:22;3.40;99.90
44767;DHT22;30487;48.716;9.272;2024-01-27T04:52:47;3.40;99.90
44767;DHT22;30487;48.716;9.272;2024-01-27T04:55:13;3.40;99.90
44767;DHT22;30487;48.716;9.272;2024-01-27T04:57:38;3.40;99.90
44767;DHT22;30487;48.716;9.272;2024-01-27T05:00:04;3.30;99.90
44767;DHT22;30487;48.716;9.272;2024-01-27T05:02:33;3.30;99.90
44767;DHT22;30487;48.716;9.272;2024-01-27T05:04:59;3.20;99.90
44767;DHT22;30487;48.716;9.272;2024-01-27T05:07:24;3.20;99.90
44767;DHT22;30487;48.716;9.272;2024-01-27T05:09:50;3.20;99.90
44767;DHT22;30487;48.716;9.272;2024-01-27T05:12:16;3.20;99.90
44767;DHT22;30487;48.716;9.272;2024-01-27T05:14:44;3.30;99.90
44767;DHT22;30487;48.716;9.272;2024-01-27T05:17:10;3.30;99.90
44767;DHT22;30487;48.716;9.272;2024-01-27T05:19:36;3.20;99.90
44767;DHT22;30487;48.716;9.272;2024-01-27T05:22:02;3.20;99.90
44767;DHT22;30487;48.716;9.272;2024-01-27T05:24:27;3.20;99.90
44767;DHT22;30487;48.716;9.272;2024-01-27T05:26:53;3.10;99.90
44767;DHT22;30487;48.716;9.272;2024-01-27T05:29:18;3.10;99.90
44767;DHT22;30487;48.716;9.272;2024-01-27T05:31:44;3.20;99.90
44767;DHT22;30487;48.716;9.272;2024-01-27T05:34:13;3.20;99.90
44767;DHT22;30487;48.716;9.272;2024-01-27T05:36:38;3.20;99.90
44767;DHT22;30487;48.716;9.272;2024-01-27T05:39:04;3.10;99.90
44767;DHT22;30487;48.716;9.272;2024-01-27T05:41:30;3.10;99.90
44767;DHT22;30487;48.716;9.272;2024-01-27T05:43:56;3.20;99.90
44767;DHT22;30487;48.716;9.272;2024-01-27T05:46:25;3.10;99.90
44767;DHT22;30487;48.716;9.272;2024-01-27T05:48:51;3.20;99.90
44767;DHT22;30487;48.716;9.272;2024-01-27T05:51:22;3.20;99.90
44767;DHT22;30487;48.716;9.272;2024-01-27T05:53:48;3.20;99.90
44767;DHT22;30487;48.716;9.272;2024-01-27T05:56:14;3.20;99.90
44767;DHT22;30487;48.716;9.272;2024-01-27T05:58:40;3.20;99.90
44767;DHT22;30487;48.716;9.272;2024-01-27T06:01:05;3.20;99.90
44767;DHT22;30487;48.716;9.272;2024-01-27T06:03:32;3.20;99.90
44767;DHT22;30487;48.716;9.272;2024-01-27T06:05:57;3.20;99.90
44767;DHT22;30487;48.716;9.272;2024-01-27T06:08:23;3.30;99.90
44767;DHT22;30487;48.716;9.272;2024-01-27T06:10:48;3.20;99.90
44767;DHT22;30487;48.716;9.272;2024-01-27T06:13:14;3.20;99.90
44767;DHT22;30487;48.716;9.272;2024-01-27T06:15:40;3.20;99.90
44767;DHT22;30487;48.716;9.272;2024-01-27T06:18:05;3.20;99.90
44767;DHT22;30487;48.716;9.272;2024-01-27T06:20:31;3.20;99.90
44767;DHT22;30487;48.716;9.272;2024-01-27T06:22:57;3.20;99.90
44767;DHT22;30487;48.716;9.272;2024-01-27T06:25:23;3.10;99.90
44767;DHT22;30487;48.716;9.272;2024-01-27T06:27:48;3.10;99.90
44767;DHT22;30487;48.716;9.272;2024-01-27T06:30:14;3.10;99.90
44767;DHT22;30487;48.716;9.272;2024-01-27T06:32:40;3.10;99.90
44767;DHT22;30487;48.716;9.272;2024-01-27T06:35:06;3.10;99.90
44767;DHT22;30487;48.716;9.272;2024-01-27T06:37:35;3.10;99.90
44767;DHT22;30487;48.716;9.272;2024-01-27T06:40:01;3.00;99.90
44767;DHT22;30487;48.716;9.272;2024-01-27T06:42:27;3.00;99.90
44767;DHT22;30487;48.716;9.272;2024-01-27T06:44:52;3.00;99.90
44767;DHT22;30487;48.716;9.272;2024-01-27T06:47:18;3.00;99.90
44767;DHT22;30487;48.716;9.272;2024-01-27T06:49:43;3.00;99.90
44767;DHT22;30487;48.716;9.272;2024-01-27T06:52:09;3.00;99.90
44767;DHT22;30487;48.716;9.272;2024-01-27T06:54:35;3.00;99.90
44767;DHT22;30487;48.716;9.272;2024-01-27T06:57:01;2.90;99.90
44767;DHT22;30487;48.716;9.272;2024-01-27T06:59:27;2.90;99.90
44767;DHT22;30487;48.716;9.272;2024-01-27T07:01:53;3.00;99.90
44767;DHT22;30487;48.716;9.272;2024-01-27T07:04:18;3.00;99.90
44767;DHT22;30487;48.716;9.272;2024-01-27T07:06:44;3.10;99.90
44767;DHT22;30487;48.716;9.272;2024-01-27T07:09:10;3.10;99.90
44767;DHT22;30487;48.716;9.272;2024-01-27T07:11:36;3.00;99.90
44767;DHT22;30487;48.716;9.272;2024-01-27T07:14:03;2.90;99.90
44767;DHT22;30487;48.716;9.272;2024-01-27T07:16:29;2.80;99.90
44767;DHT22;30487;48.716;9.272;2024-01-27T07:18:54;2.80;99.90
44767;DHT22;30487;48.716;9.272;2024-01-27T07:21:20;2.90;99.90
44767;DHT22;30487;48.716;9.272;2024-01-27T07:23:46;2.90;99.90
44767;DHT22;30487;48.716;9.272;2024-01-27T07:26:11;3.10;99.90
44767;DHT22;30487;48.716;9.272;2024-01-27T07:28:38;3.10;99.90
44767;DHT22;30487;48.716;9.272;2024-01-27T07:31:07;3.20;99.90
44767;DHT22;30487;48.716;9.272;2024-01-27T07:33:32;3.20;99.90
44767;DHT22;30487;48.716;9.272;2024-01-27T07:35:58;3.30;99.90
44767;DHT22;30487;48.716;9.272;2024-01-27T07:38:24;3.50;99.90
44767;DHT22;30487;48.716;9.272;2024-01-27T07:40:49;3.90;99.90
44767;DHT22;30487;48.716;9.272;2024-01-27T07:43:15;4.40;99.90
44767;DHT22;30487;48.716;9.272;2024-01-27T07:45:40;4.80;99.90
44767;DHT22;30487;48.716;9.272;2024-01-27T07:48:06;5.20;99.90
44767;DHT22;30487;48.716;9.272;2024-01-27T07:50:33;5.70;99.90
44767;DHT22;30487;48.716;9.272;2024-01-27T07:52:59;6.10;99.90
44767;DHT22;30487;48.716;9.272;2024-01-27T07:55:24;6.50;99.90
44767;DHT22;30487;48.716;9.272;2024-01-27T07:57:50;6.80;99.90
44767;DHT22;30487;48.716;9.272;2024-01-27T08:00:15;7.00;99.90
44767;DHT22;30487;48.716;9.272;2024-01-27T08:02:41;7.30;99.90
44767;DHT22;30487;48.716;9.272;2024-01-27T08:05:07;7.60;99.90
44767;DHT22;30487;48.716;9.272;2024-01-27T08:07:34;7.90;99.90
44767;DHT22;30487;48.716;9.272;2024-01-27T08:09:59;8.20;99.90
44767;DHT22;30487;48.716;9.272;2024-01-27T08:12:25;8.60;99.90
44767;DHT22;30487;48.716;9.272;2024-01-27T08:14:51;8.90;99.90
44767;DHT22;30487;48.716;9.272;2024-01-27T08:17:16;9.20;99.90
44767;DHT22;30487;48.716;9.272;2024-01-27T08:19:42;9.40;99.90
44767;DHT22;30487;48.716;9.272;2024-01-27T08:22:08;9.70;99.90
44767;DHT22;30487;48.716;9.272;2024-01-27T08:24:34;10.00;99.90
44767;DHT22;30487;48.716;9.272;2024-01-27T08:27:00;10.40;99.90
44767;DHT22;30487;48.716;9.272;2024-01-27T08:29:26;10.60;99.90
44767;DHT22;30487;48.716;9.272;2024-01-27T08:31:52;10.80;99.50
44767;DHT22;30487;48.716;9.272;2024-01-27T08:34:17;11.00;99.10
44767;DHT22;30487;48.716;9.272;2024-01-27T08:36:43;11.30;98.20
44767;DHT22;30487;48.716;9.272;2024-01-27T08:39:08;11.40;97.60
44767;DHT22;30487;48.716;9.272;2024-01-27T08:41:34;11.60;96.90
44767;DHT22;30487;48.716;9.272;2024-01-27T08:44:00;11.80;96.00
44767;DHT22;30487;48.716;9.272;2024-01-27T08:46:25;12.00;95.60
44767;DHT22;30487;48.716;9.272;2024-01-27T08:48:51;12.00;95.10
44767;DHT22;30487;48.716;9.272;2024-01-27T08:51:17;11.90;95.00
44767;DHT22;30487;48.716;9.272;2024-01-27T08:53:44;11.20;95.10
44767;DHT22;30487;48.716;9.272;2024-01-27T08:56:15;10.50;96.00
44767;DHT22;30487;48.716;9.272;2024-01-27T08:58:41;9.80;97.00
44767;DHT22;30487;48.716;9.272;2024-01-27T09:01:07;9.20;98.00
44767;DHT22;30487;48.716;9.272;2024-01-27T09:03:35;8.80;98.60
44767;DHT22;30487;48.716;9.272;2024-01-27T09:06:00;8.50;99.60
44767;DHT22;30487;48.716;9.272;2024-01-27T09:08:26;8.30;99.80
44767;DHT22;30487;48.716;9.272;2024-01-27T09:10:51;8.20;99.90
44767;DHT22;30487;48.716;9.272;2024-01-27T09:13:17;8.10;99.90
44767;DHT22;30487;48.716;9.272;2024-01-27T09:15:42;8.10;99.90
44767;DHT22;30487;48.716;9.272;2024-01-27T09:18:08;8.10;99.90
44767;DHT22;30487;48.716;9.272;2024-01-27T09:20:37;8.20;99.90
44767;DHT22;30487;48.716;9.272;2024-01-27T09:23:02;8.40;99.90
44767;DHT22;30487;48.716;9.272;2024-01-27T09:25:28;8.90;99.90
44767;DHT22;30487;48.716;9.272;2024-01-27T09:27:55;9.40;99.90
44767;DHT22;30487;48.716;9.272;2024-01-27T09:30:20;10.20;99.40
44767;DHT22;30487;48.716;9.272;2024-01-27T09:32:46;10.90;98.10
44767;DHT22;30487;48.716;9.272;2024-01-27T09:35:12;11.60;97.10
44767;DHT22;30487;48.716;9.272;2024-01-27T09:37:37;12.20;95.90
44767;DHT22;30487;48.716;9.272;2024-01-27T09:40:03;12.70;95.30
44767;DHT22;30487;48.716;9.272;2024-01-27T09:42:33;13.00;94.10
44767;DHT22;30487;48.716;9.272;2024-01-27T09:45:01;13.50;93.50
44767;DHT22;30487;48.716;9.272;2024-01-27T09:47:27;13.70;92.50
44767;DHT22;30487;48.716;9.272;2024-01-27T09:49:53;13.90;92.10
44767;DHT22;30487;48.716;9.272;2024-01-27T09:52:19;14.10;91.60
44767;DHT22;30487;48.716;9.272;2024-01-27T09:54:45;14.40;91.00
44767;DHT22;30487;48.716;9.272;2024-01-27T09:57:10;14.60;90.30
44767;DHT22;30487;48.716;9.272;2024-01-27T09:59:41;14.90;89.30
44767;DHT22;30487;48.716;9.272;2024-01-27T10:02:11;15.00;88.10
44767;DHT22;30487;48.716;9.272;2024-01-27T10:04:41;15.20;87.30
44767;DHT22;30487;48.716;9.272;2024-01-27T10:07:07;15.30;86.60
44767;DHT22;30487;48.716;9.272;2024-01-27T10:09:32;15.50;85.10
44767;DHT22;30487;48.716;9.272;2024-01-27T10:11:58;15.60;84.50
44767;DHT22;30487;48.716;9.272;2024-01-27T10:14:26;15.80;84.10
44767;DHT22;30487;48.716;9.272;2024-01-27T10:16:51;16.10;82.40
44767;DHT22;30487;48.716;9.272;2024-01-27T10:19:18;16.30;82.00
44767;DHT22;30487;48.716;9.272;2024-01-27T10:21:47;16.60;80.60
44767;DHT22;30487;48.716;9.272;2024-01-27T10:24:13;16.90;80.10
44767;DHT22;30487;48.716;9.272;2024-01-27T10:26:39;17.20;78.90
44767;DHT22;30487;48.716;9.272;2024-01-27T10:29:05;17.50;77.40
44767;DHT22;30487;48.716;9.272;2024-01-27T10:31:33;17.80;76.20
44767;DHT22;30487;48.716;9.272;2024-01-27T10:33:58;18.00;75.10
44767;DHT22;30487;48.716;9.272;2024-01-27T10:36:26;18.30;74.00
44767;DHT22;30487;48.716;9.272;2024-01-27T10:38:52;18.50;73.50
44767;DHT22;30487;48.716;9.272;2024-01-27T10:41:24;18.70;72.30
44767;DHT22;30487;48.716;9.272;2024-01-27T10:43:52;18.80;71.70
44767;DHT22;30487;48.716;9.272;2024-01-27T10:46:21;19.00;70.70
44767;DHT22;30487;48.716;9.272;2024-01-27T10:48:56;19.10;70.20
44767;DHT22;30487;48.716;9.272;2024-01-27T10:51:31;19.40;70.00
44767;DHT22;30487;48.716;9.272;2024-01-27T10:54:01;19.90;70.00
44767;DHT22;30487;48.716;9.272;2024-01-27T10:56:31;20.10;67.20
44767;DHT22;30487;48.716;9.272;2024-01-27T10:58:58;20.20;67.20
44767;DHT22;30487;48.716;9.272;2024-01-27T11:01:25;20.60;65.70
44767;DHT22;30487;48.716;9.272;2024-01-27T11:03:52;20.80;64.90
44767;DHT22;30487;48.716;9.272;2024-01-27T11:06:22;21.30;64.10
44767;DHT22;30487;48.716;9.272;2024-01-27T11:08:49;21.70;63.00
44767;DHT22;30487;48.716;9.272;2024-01-27T11:11:16;22.10;62.40
44767;DHT22;30487;48.716;9.272;2024-01-27T11:13:42;22.20;61.20
44767;DHT22;30487;48.716;9.272;2024-01-27T11:16:15;22.50;60.20
44767;DHT22;30487;48.716;9.272;2024-01-27T11:18:42;22.70;59.40
44767;DHT22;30487;48.716;9.272;2024-01-27T11:21:15;22.70;59.10
44767;DHT22;30487;48.716;9.272;2024-01-27T11:23:42;23.00;58.60
44767;DHT22;30487;48.716;9.272;2024-01-27T11:26:09;23.40;57.90
44767;DHT22;30487;48.716;9.272;2024-01-27T11:28:35;23.70;57.70
44767;DHT22;30487;48.716;9.272;2024-01-27T11:31:06;23.80;56.80
44767;DHT22;30487;48.716;9.272;2024-01-27T11:33:32;24.00;56.20
44767;DHT22;30487;48.716;9.272;2024-01-27T11:36:04;24.20;55.80
44767;DHT22;30487;48.716;9.272;2024-01-27T11:38:31;24.40;55.60
44767;DHT22;30487;48.716;9.272;2024-01-27T11:40:57;24.60;54.60
44767;DHT22;30487;48.716;9.272;2024-01-27T11:43:22;24.80;53.80
44767;DHT22;30487;48.716;9.272;2024-01-27T11:45:58;25.00;53.50
44767;DHT22;30487;48.716;9.272;2024-01-27T11:48:25;24.90;53.30
44767;DHT22;30487;48.716;9.272;2024-01-27T11:51:07;24.80;52.70
44767;DHT22;30487;48.716;9.272;2024-01-27T11:53:34;25.10;52.30
44767;DHT22;30487;48.716;9.272;2024-01-27T11:55:59;25.30;51.70
44767;DHT22;30487;48.716;9.272;2024-01-27T11:58:27;25.40;51.10
44767;DHT22;30487;48.716;9.272;2024-01-27T12:00:53;25.50;51.00
44767;DHT22;30487;48.716;9.272;2024-01-27T12:03:19;25.40;50.90
44767;DHT22;30487;48.716;9.272;2024-01-27T12:05:45;25.60;50.80
44767;DHT22;30487;48.716;9.272;2024-01-27T12:08:10;25.50;50.40
44767;DHT22;30487;48.716;9.272;2024-01-27T12:10:36;25.80;50.50
44767;DHT22;30487;48.716;9.272;2024-01-27T12:13:02;25.90;50.20
44767;DHT22;30487;48.716;9.272;2024-01-27T12:15:28;26.00;49.10
44767;DHT22;30487;48.716;9.272;2024-01-27T12:17:53;26.10;48.80
44767;DHT22;30487;48.716;9.272;2024-01-27T12:20:19;25.70;48.70
44767;DHT22;30487;48.716;9.272;2024-01-27T12:22:47;25.90;48.70
44767;DHT22;30487;48.716;9.272;2024-01-27T12:25:15;25.90;48.60
44767;DHT22;30487;48.716;9.272;2024-01-27T12:27:41;25.60;48.30
44767;DHT22;30487;48.716;9.272;2024-01-27T12:30:07;25.30;47.90
44767;DHT22;30487;48.716;9.272;2024-01-27T12:32:33;24.60;47.80
44767;DHT22;30487;48.716;9.272;2024-01-27T12:34:58;24.40;48.80
44767;DHT22;30487;48.716;9.272;2024-01-27T12:37:26;25.10;48.80
44767;DHT22;30487;48.716;9.272;2024-01-27T12:39:51;25.60;49.10
44767;DHT22;30487;48.716;9.272;2024-01-27T12:42:17;25.70;47.50
44767;DHT22;30487;48.716;9.272;2024-01-27T12:44:43;25.80;48.00
44767;DHT22;30487;48.716;9.272;2024-01-27T12:47:11;26.00;47.80
44767;DHT22;30487;48.716;9.272;2024-01-27T12:49:37;25.80;47.40
44767;DHT22;30487;48.716;9.272;2024-01-27T12:52:04;25.80;48.40
44767;DHT22;30487;48.716;9.272;2024-01-27T12:54:31;26.20;47.30
44767;DHT22;30487;48.716;9.272;2024-01-27T12:56:56;26.30;47.40
44767;DHT22;30487;48.716;9.272;2024-01-27T12:59:22;26.30;46.90
44767;DHT22;30487;48.716;9.272;2024-01-27T13:01:49;26.40;46.90
44767;DHT22;30487;48.716;9.272;2024-01-27T13:04:14;26.90;46.10
44767;DHT22;30487;48.716;9.272;2024-01-27T13:06:40;27.20;45.70
44767;DHT22;30487;48.716;9.272;2024-01-27T13:09:07;27.40;45.60
44767;DHT22;30487;48.716;9.272;2024-01-27T13:11:33;28.10;44.60
44767;DHT22;30487;48.716;9.272;2024-01-27T13:13:58;28.20;44.50
44767;DHT22;30487;48.716;9.272;2024-01-27T13:16:24;28.60;44.50
44767;DHT22;30487;48.716;9.272;2024-01-27T13:18:50;28.30;43.90
44767;DHT22;30487;48.716;9.272;2024-01-27T13:21:15;27.50;44.40
44767;DHT22;30487;48.716;9.272;2024-01-27T13:23:41;27.70;46.30
44767;DHT22;30487;48.716;9.272;2024-01-27T13:26:06;27.50;44.80
44767;DHT22;30487;48.716;9.272;2024-01-27T13:28:32;27.10;44.50
44767;DHT22;30487;48.716;9.272;2024-01-27T13:30:58;26.80;44.00
44767;DHT22;30487;48.716;9.272;2024-01-27T13:33:23;26.30;44.80
44767;DHT22;30487;48.716;9.272;2024-01-27T13:35:49;25.90;44.70
44767;DHT22;30487;48.716;9.272;2024-01-27T13:38:15;25.90;45.00
44767;DHT22;30487;48.716;9.272;2024-01-27T13:40:42;25.90;45.20
44767;DHT22;30487;48.716;9.272;2024-01-27T13:43:08;25.90;47.30
44767;DHT22;30487;48.716;9.272;2024-01-27T13:45:34;25.40;46.40
44767;DHT22;30487;48.716;9.272;2024-01-27T13:47:59;25.00;46.20
44767;DHT22;30487;48.716;9.272;2024-01-27T13:50:25;24.80;46.30
44767;DHT22;30487;48.716;9.272;2024-01-27T13:52:53;24.80;45.90
44767;DHT22;30487;48.716;9.272;2024-01-27T13:55:18;24.60;45.70
44767;DHT22;30487;48.716;9.272;2024-01-27T13:57:44;24.50;45.50
44767;DHT22;30487;48.716;9.272;2024-01-27T14:00:10;24.20;46.80
44767;DHT22;30487;48.716;9.272;2024-01-27T14:02:36;24.00;46.40
44767;DHT22;30487;48.716;9.272;2024-01-27T14:05:02;24.00;46.20
44767;DHT22;30487;48.716;9.272;2024-01-27T14:07:28;23.90;46.20
44767;DHT22;30487;48.716;9.272;2024-01-27T14:09:54;23.80;45.90
44767;DHT22;30487;48.716;9.272;2024-01-27T14:12:20;23.40;46.20
44767;DHT22;30487;48.716;9.272;2024-01-27T14:14:45;23.10;46.20
44767;DHT22;30487;48.716;9.272;2024-01-27T14:17:11;23.10;45.90
44767;DHT22;30487;48.716;9.272;2024-01-27T14:19:37;23.30;45.70
44767;DHT22;30487;48.716;9.272;2024-01-27T14:22:02;23.60;45.60
44767;DHT22;30487;48.716;9.272;2024-01-27T14:24:28;23.80;45.10
44767;DHT22;30487;48.716;9.272;2024-01-27T14:26:54;23.60;45.50
44767;DHT22;30487;48.716;9.272;2024-01-27T14:29:20;23.50;46.00
44767;DHT22;30487;48.716;9.272;2024-01-27T14:31:45;23.30;46.20
44767;DHT22;30487;48.716;9.272;2024-01-27T14:34:11;23.10;46.10
44767;DHT22;30487;48.716;9.272;2024-01-27T14:36:38;23.10;46.50
44767;DHT22;30487;48.716;9.272;2024-01-27T14:39:03;22.70;46.70
44767;DHT22;30487;48.716;9.272;2024-01-27T14:41:30;22.60;47.10
44767;DHT22;30487;48.716;9.272;2024-01-27T14:43:55;22.40;47.10
44767;DHT22;30487;48.716;9.272;2024-01-27T14:46:22;22.20;47.30
44767;DHT22;30487;48.716;9.272;2024-01-27T14:48:48;21.80;47.70
44767;DHT22;30487;48.716;9.272;2024-01-27T14:51:14;21.30;48.50
44767;DHT22;30487;48.716;9.272;2024-01-27T14:53:40;20.70;49.30
44767;DHT22;30487;48.716;9.272;2024-01-27T14:56:05;20.20;50.40
44767;DHT22;30487;48.716;9.272;2024-01-27T14:58:31;19.90;50.70
44767;DHT22;30487;48.716;9.272;2024-01-27T15:00:57;19.70;50.90
44767;DHT22;30487;48.716;9.272;2024-01-27T15:03:23;19.50;51.10
44767;DHT22;30487;48.716;9.272;2024-01-27T15:05:50;19.10;52.00
44767;DHT22;30487;48.716;9.272;2024-01-27T15:08:20;19.00;51.90
44767;DHT22;30487;48.716;9.272;2024-01-27T15:10:46;18.80;52.30
44767;DHT22;30487;48.716;9.272;2024-01-27T15:13:13;18.60;52.60
44767;DHT22;30487;48.716;9.272;2024-01-27T15:15:39;18.40;53.10
44767;DHT22;30487;48.716;9.272;2024-01-27T15:18:08;18.20;53.30
44767;DHT22;30487;48.716;9.272;2024-01-27T15:20:35;17.90;54.10
44767;DHT22;30487;48.716;9.272;2024-01-27T15:23:01;17.80;54.40
44767;DHT22;30487;48.716;9.272;2024-01-27T15:25:27;17.60;54.20
44767;DHT22;30487;48.716;9.272;2024-01-27T15:27:53;17.50;54.80
44767;DHT22;30487;48.716;9.272;2024-01-27T15:30:19;17.30;55.00
44767;DHT22;30487;48.716;9.272;2024-01-27T15:32:47;17.00;55.70